Hilham, TN (38568)

4:03 PM CST on February 06, 2016 (GMT -0600)
APRSWXNET | | Change Station
CLOSE
Current Station
Personal Weather Station
Location: Cookeville, TN
Elevation: 1000 ft
Nearby Weather Stations

Elev 1000 ft 36.25 °N, 85.50 °W | Updated 36 minutes ago

Clear
Clear
48 °F
Feels Like 48 °F
N
0
Wind Variable Wind from NNE
Gusts 0.0 mph

Today
High -- | Low -- °F
--% Chance of Precip.
Yesterday
High -- | Low -- °F
Precip. -- in
Pressure 30.28 in
Visibility 10.0 miles
Clouds Clear
Windchill 48 °F
Dew Point 25 °F
Humidity 40%
Rainfall in
Snow Depth Not available.
6:39 AM 5:12 PM
Waning Crescent, 4% visible
METAR KSRB 062155Z AUTO 00000KT 10SM CLR 09/M07 A3028 RMK
Pressure 30.28 in
Visibility 10.0 miles
Clouds Clear
Windchill 48 °F
Dew Point 25 °F
Humidity 40%
Rainfall in
Snow Depth Not available.
6:39 AM 5:12 PM
Waning Crescent, 4% visible
METAR KSRB 062155Z AUTO 00000KT 10SM CLR 09/M07 A3028 RMK

10-Day Weather Forecast

Almanac

Astronomy

Feb. 06, 2016 Rise Set
Actual Time
Civil Twilight
Nautical Twilight
Astronomical Twilight
Moon
Length of Visible Light
Length of Day
Tomorrow will be .
, % of the Moon is Illuminated

Today's Extremes

State Highs State Lows

Community

WunderPhotos

Upload Photos

1,891,082 photos uploaded!

WunderBlog® & News

Nearby

Air Quality

  Air Quality AQ Index Pollutant
Not available.

Snow Depth

Station Depth Elevation

Earthquake Activity

City Distance Mag. Time & Date
Minimum magnitude displayed is 2.5.

Coastal Water Temperatures

Place Temperature

Stations

Nearby Weather Stations

Station Location Temp. Windchill Dew Point Humidity Wind Precip. Elev Updated Type
                   

Watches & Warnings

There are currently no watches in effect.